Time;durP1;ratioP1;P1;durP2;ratioP2;P2;SDS_P1;SDS_P2;PMS_P1;PMS_P2;Temp;Humidity;BMP_temperature;BMP_pressure;BME280_temperature;BME280_humidity;BME280_pressure;Samples;Min_cycle;Max_cycle;Signal;HPM_P1;HPM_P2
2023/04/19 04:02:17;;;;;;;;;;;10.20;99.90;;;;;;5164441;23;19925;-67
2023/04/19 04:04:42;;;;;;;;;;;10.20;99.90;;;;;;5032614;28;20273;-65
2023/04/19 04:07:08;;;;;;;;;;;10.20;99.90;;;;;;5034014;28;20230;-66
2023/04/19 04:09:33;;;;;;;;;;;10.20;99.90;;;;;;5016346;28;19967;-67
2023/04/19 04:11:59;;;;;;;;;;;10.20;99.90;;;;;;5049108;28;19917;-67
2023/04/19 04:14:24;;;;;;;;;;;10.20;99.90;;;;;;5054399;28;19971;-63
2023/04/19 04:16:50;;;;;;;;;;;10.20;99.90;;;;;;5054043;28;19920;-63
2023/04/19 04:19:16;;;;;;;;;;;10.20;99.90;;;;;;5035803;28;19915;-63
2023/04/19 04:21:41;;;;;;;;;;;10.20;99.90;;;;;;5049824;28;20032;-63
2023/04/19 04:24:07;;;;;;;;;;;10.20;99.90;;;;;;5035054;28;20015;-64
2023/04/19 04:26:38;;;;;;;;;;;10.20;99.90;;;;;;5034471;28;19916;-61
2023/04/19 04:29:04;;;;;;;;;;;10.10;99.90;;;;;;5033571;28;19913;-62
2023/04/19 04:31:30;;;;;;;;;;;10.10;99.90;;;;;;5044079;28;20361;-62
2023/04/19 04:33:56;;;;;;;;;;;10.10;99.90;;;;;;5053350;28;19909;-63
2023/04/19 04:36:21;;;;;;;;;;;10.20;99.90;;;;;;5053242;28;19967;-63
2023/04/19 04:38:47;;;;;;;;;;;10.20;99.90;;;;;;5053556;28;19909;-63
2023/04/19 04:41:12;;;;;;;;;;;10.10;99.90;;;;;;5053899;28;19916;-65
2023/04/19 04:43:38;;;;;;;;;;;10.10;99.90;;;;;;5035810;28;19909;-62
2023/04/19 04:46:03;;;;;;;;;;;10.10;99.90;;;;;;5055597;28;20434;-64
2023/04/19 04:48:30;;;;;;;;;;;10.20;99.90;;;;;;5055700;28;19909;-63
2023/04/19 04:50:56;;;;;;;;;;;10.20;99.90;;;;;;5054013;28;19908;-64
2023/04/19 04:53:22;;;;;;;;;;;10.20;99.90;;;;;;5040883;28;20008;-62
2023/04/19 04:55:47;;;;;;;;;;;10.20;99.90;;;;;;5022963;28;19916;-63
2023/04/19 04:58:13;;;;;;;;;;;10.20;99.90;;;;;;5033427;28;19995;-63
2023/04/19 05:00:38;;;;;;;;;;;10.20;99.90;;;;;;5033219;28;19917;-64
2023/04/19 05:03:03;;;;;;;;;;;10.20;99.90;;;;;;5033629;28;19913;-68
2023/04/19 05:05:29;;;;;;;;;;;10.20;99.90;;;;;;5036472;28;19963;-67
2023/04/19 05:07:54;;;;;;;;;;;10.20;99.90;;;;;;5015752;28;20324;-69
2023/04/19 05:10:23;;;;;;;;;;;10.20;99.90;;;;;;5015649;28;20343;-69
2023/04/19 05:12:48;;;;;;;;;;;10.20;99.90;;;;;;5042381;28;19971;-70
2023/04/19 05:15:14;;;;;;;;;;;10.30;99.90;;;;;;5032381;28;20300;-71
2023/04/19 05:17:41;;;;;;;;;;;10.30;99.90;;;;;;5043218;28;19909;-64
2023/04/19 05:20:07;;;;;;;;;;;10.30;99.90;;;;;;5046134;28;20326;-64
2023/04/19 05:22:32;;;;;;;;;;;10.20;99.90;;;;;;5045779;28;19995;-64
2023/04/19 05:24:58;;;;;;;;;;;10.30;99.90;;;;;;5033525;28;20320;-63
2023/04/19 05:27:23;;;;;;;;;;;10.30;99.90;;;;;;5033821;28;20279;-66
2023/04/19 05:29:50;;;;;;;;;;;10.30;99.90;;;;;;5033636;28;20263;-65
2023/04/19 05:32:15;;;;;;;;;;;10.30;99.90;;;;;;5033314;28;19913;-65
2023/04/19 05:34:41;;;;;;;;;;;10.30;99.90;;;;;;5033455;28;19914;-65
2023/04/19 05:37:06;;;;;;;;;;;10.30;99.90;;;;;;5034148;28;19944;-65
2023/04/19 05:39:32;;;;;;;;;;;10.30;99.90;;;;;;5037156;28;19909;-65
2023/04/19 05:41:57;;;;;;;;;;;10.30;99.90;;;;;;5017740;28;19935;-65
2023/04/19 05:44:23;;;;;;;;;;;10.40;99.90;;;;;;5039065;28;19917;-69
2023/04/19 05:46:48;;;;;;;;;;;10.40;99.90;;;;;;5043940;28;19916;-72
2023/04/19 05:49:13;;;;;;;;;;;10.50;99.90;;;;;;5037328;28;19944;-68
2023/04/19 05:51:39;;;;;;;;;;;10.50;99.90;;;;;;5018999;28;19913;-72
2023/04/19 05:54:04;;;;;;;;;;;10.50;99.90;;;;;;5036783;28;20396;-69
2023/04/19 05:56:30;;;;;;;;;;;10.40;99.90;;;;;;5036478;28;19917;-69
2023/04/19 05:58:55;;;;;;;;;;;10.50;99.90;;;;;;5035332;28;19939;-68
2023/04/19 06:01:21;;;;;;;;;;;10.40;99.90;;;;;;5035846;28;20328;-68
2023/04/19 06:03:51;;;;;;;;;;;10.40;99.90;;;;;;5036434;28;20328;-72
2023/04/19 06:06:17;;;;;;;;;;;10.30;99.90;;;;;;5018561;28;19936;-67
2023/04/19 06:08:42;;;;;;;;;;;10.40;99.90;;;;;;5038538;28;19909;-71
2023/04/19 06:11:08;;;;;;;;;;;10.40;99.90;;;;;;5022504;28;19928;-73
2023/04/19 06:13:33;;;;;;;;;;;10.40;99.90;;;;;;5038039;28;19951;-73
2023/04/19 06:15:59;;;;;;;;;;;10.40;99.90;;;;;;5037832;28;20324;-71
2023/04/19 06:18:24;;;;;;;;;;;10.40;99.90;;;;;;5018925;28;20005;-69
2023/04/19 06:20:52;;;;;;;;;;;10.50;99.90;;;;;;5018314;28;19915;-68
2023/04/19 06:23:17;;;;;;;;;;;10.50;99.90;;;;;;5018594;28;20416;-67
2023/04/19 06:25:43;;;;;;;;;;;10.50;99.90;;;;;;5036127;28;19913;-67
2023/04/19 06:28:08;;;;;;;;;;;10.60;99.90;;;;;;5036117;28;19909;-66
2023/04/19 06:30:33;;;;;;;;;;;10.70;99.90;;;;;;5037357;28;19916;-66
2023/04/19 06:32:59;;;;;;;;;;;10.70;99.90;;;;;;5037417;28;20440;-74
2023/04/19 06:35:24;;;;;;;;;;;10.80;99.90;;;;;;5018710;28;20277;-73
2023/04/19 06:37:50;;;;;;;;;;;10.80;99.90;;;;;;5036459;28;19920;-68
2023/04/19 06:40:15;;;;;;;;;;;10.90;99.90;;;;;;5035765;28;20333;-68
2023/04/19 06:42:41;;;;;;;;;;;10.90;99.90;;;;;;5036076;28;20322;-72
2023/04/19 06:45:06;;;;;;;;;;;11.00;99.90;;;;;;5017232;28;19971;-67
2023/04/19 06:47:32;;;;;;;;;;;11.00;99.90;;;;;;5036320;28;19952;-68
2023/04/19 06:49:58;;;;;;;;;;;11.00;99.90;;;;;;5036155;28;19952;-72
2023/04/19 06:52:23;;;;;;;;;;;11.10;99.90;;;;;;5048470;28;20011;-71
2023/04/19 06:54:49;;;;;;;;;;;11.10;99.90;;;;;;5055776;28;19915;-71
2023/04/19 06:57:18;;;;;;;;;;;11.10;99.90;;;;;;5054995;28;20499;-72
2023/04/19 06:59:43;;;;;;;;;;;11.20;99.90;;;;;;5056201;28;19952;-70
2023/04/19 07:02:09;;;;;;;;;;;11.20;99.90;;;;;;5055682;28;20345;-70
2023/04/19 07:04:35;;;;;;;;;;;11.20;99.90;;;;;;5051908;28;19909;-72
2023/04/19 07:07:00;;;;;;;;;;;11.20;99.90;;;;;;5017806;28;20370;-68
2023/04/19 07:09:26;;;;;;;;;;;11.30;99.90;;;;;;5035998;28;19916;-72
2023/04/19 07:11:51;;;;;;;;;;;11.30;99.90;;;;;;5017895;28;19924;-69
2023/04/19 07:14:19;;;;;;;;;;;11.40;99.90;;;;;;5017586;28;19916;-65
2023/04/19 07:16:45;;;;;;;;;;;11.60;99.90;;;;;;5036279;28;19963;-71
2023/04/19 07:19:11;;;;;;;;;;;11.70;99.90;;;;;;5035607;28;19909;-72
2023/04/19 07:21:38;;;;;;;;;;;11.80;99.90;;;;;;5035487;28;19959;-70
2023/04/19 07:24:04;;;;;;;;;;;11.90;99.90;;;;;;5035389;28;19920;-67
2023/04/19 07:26:29;;;;;;;;;;;11.90;99.90;;;;;;5035789;28;19913;-66
2023/04/19 07:28:55;;;;;;;;;;;12.00;99.90;;;;;;5035126;28;19917;-66
2023/04/19 07:31:21;;;;;;;;;;;12.10;99.90;;;;;;5035314;28;19966;-66
2023/04/19 07:33:46;;;;;;;;;;;12.00;99.90;;;;;;5017495;28;19935;-65
2023/04/19 07:36:12;;;;;;;;;;;12.20;99.90;;;;;;5034842;28;19917;-65
2023/04/19 07:38:38;;;;;;;;;;;12.30;99.90;;;;;;5035180;28;19909;-66
2023/04/19 07:41:04;;;;;;;;;;;12.30;99.90;;;;;;5034970;28;19909;-65
2023/04/19 07:43:30;;;;;;;;;;;12.30;99.90;;;;;;5016866;28;19931;-66
2023/04/19 07:45:55;;;;;;;;;;;12.40;99.90;;;;;;5034552;28;19913;-65
2023/04/19 07:48:21;;;;;;;;;;;12.50;99.90;;;;;;5035915;28;20024;-70
2023/04/19 07:50:46;;;;;;;;;;;12.60;99.90;;;;;;5035931;28;19909;-71
2023/04/19 07:53:12;;;;;;;;;;;12.80;99.90;;;;;;5035363;28;20277;-69
2023/04/19 07:55:37;;;;;;;;;;;12.90;99.90;;;;;;5016741;28;19909;-65
2023/04/19 07:58:03;;;;;;;;;;;13.10;99.90;;;;;;5036167;28;19917;-65
2023/04/19 08:00:33;;;;;;;;;;;13.40;99.90;;;;;;5053656;28;19978;-67
2023/04/19 08:02:59;;;;;;;;;;;13.60;99.90;;;;;;5051098;28;19917;-72
2023/04/19 08:05:25;;;;;;;;;;;13.60;99.90;;;;;;5045792;28;19916;-69
2023/04/19 08:07:51;;;;;;;;;;;13.60;99.90;;;;;;5047843;28;19920;-68
2023/04/19 08:10:17;;;;;;;;;;;13.30;99.90;;;;;;5044293;28;19909;-71
2023/04/19 08:12:42;;;;;;;;;;;13.30;99.90;;;;;;5045948;28;19943;-72
2023/04/19 08:15:08;;;;;;;;;;;13.50;99.90;;;;;;5028396;28;19940;-66
2023/04/19 08:17:33;;;;;;;;;;;13.60;99.90;;;;;;5042724;28;19916;-70
2023/04/19 08:19:59;;;;;;;;;;;13.70;99.90;;;;;;5044685;28;19915;-71
2023/04/19 08:22:25;;;;;;;;;;;13.90;99.90;;;;;;5041805;28;19916;-72
2023/04/19 08:24:50;;;;;;;;;;;14.10;99.90;;;;;;5045212;28;19999;-73
2023/04/19 08:27:16;;;;;;;;;;;14.20;99.90;;;;;;5042215;28;19909;-68
2023/04/19 08:29:42;;;;;;;;;;;14.20;99.90;;;;;;5025432;28;19962;-68
2023/04/19 08:32:07;;;;;;;;;;;14.30;99.90;;;;;;5025529;28;20281;-65
2023/04/19 08:34:36;;;;;;;;;;;14.70;99.90;;;;;;5041924;28;20361;-65
2023/04/19 08:37:02;;;;;;;;;;;15.90;99.90;;;;;;5024644;28;19917;-64
2023/04/19 08:39:27;;;;;;;;;;;17.50;99.90;;;;;;5045463;28;20042;-65
2023/04/19 08:41:54;;;;;;;;;;;19.60;96.30;;;;;;5053425;28;20292;-65
2023/04/19 08:44:20;;;;;;;;;;;20.40;93.40;;;;;;5030656;28;19915;-65
